sensor_id;sensor_type;location;lat;lon;timestamp;temperature;humidity
11112;DHT22;5609;49.466;8.468;2022-11-20T00:00:40;8.70;99.90
11112;DHT22;5609;49.466;8.468;2022-11-20T00:03:07;8.60;99.90
11112;DHT22;5609;49.466;8.468;2022-11-20T00:05:34;8.40;99.90
11112;DHT22;5609;49.466;8.468;2022-11-20T00:08:00;8.50;99.90
11112;DHT22;5609;49.466;8.468;2022-11-20T00:10:27;8.40;99.90
11112;DHT22;5609;49.466;8.468;2022-11-20T00:12:54;8.50;99.90
11112;DHT22;5609;49.466;8.468;2022-11-20T00:15:21;8.70;99.90
11112;DHT22;5609;49.466;8.468;2022-11-20T00:17:49;8.80;99.90
11112;DHT22;5609;49.466;8.468;2022-11-20T00:20:16;9.00;99.90
11112;DHT22;5609;49.466;8.468;2022-11-20T00:22:43;9.00;99.90
11112;DHT22;5609;49.466;8.468;2022-11-20T00:25:09;9.10;99.90
11112;DHT22;5609;49.466;8.468;2022-11-20T00:27:36;9.10;99.90
11112;DHT22;5609;49.466;8.468;2022-11-20T00:30:04;8.90;99.90
11112;DHT22;5609;49.466;8.468;2022-11-20T00:32:31;8.70;99.90
11112;DHT22;5609;49.466;8.468;2022-11-20T00:34:59;8.80;99.90
11112;DHT22;5609;49.466;8.468;2022-11-20T00:37:26;8.80;99.90
11112;DHT22;5609;49.466;8.468;2022-11-20T00:39:53;8.80;99.90
11112;DHT22;5609;49.466;8.468;2022-11-20T00:42:20;8.90;99.90
11112;DHT22;5609;49.466;8.468;2022-11-20T00:44:47;8.90;99.90
11112;DHT22;5609;49.466;8.468;2022-11-20T00:47:13;9.10;99.90
11112;DHT22;5609;49.466;8.468;2022-11-20T00:49:40;9.20;99.90
11112;DHT22;5609;49.466;8.468;2022-11-20T00:52:08;9.40;99.90
11112;DHT22;5609;49.466;8.468;2022-11-20T00:54:35;9.40;99.90
11112;DHT22;5609;49.466;8.468;2022-11-20T00:57:02;9.10;99.90
11112;DHT22;5609;49.466;8.468;2022-11-20T00:59:29;9.10;99.90
11112;DHT22;5609;49.466;8.468;2022-11-20T01:01:55;9.30;99.90
11112;DHT22;5609;49.466;8.468;2022-11-20T01:04:22;9.40;99.90
11112;DHT22;5609;49.466;8.468;2022-11-20T01:06:49;9.30;99.90
11112;DHT22;5609;49.466;8.468;2022-11-20T01:09:17;9.40;99.90
11112;DHT22;5609;49.466;8.468;2022-11-20T01:11:44;9.20;99.90
11112;DHT22;5609;49.466;8.468;2022-11-20T01:14:13;8.90;99.90
11112;DHT22;5609;49.466;8.468;2022-11-20T01:16:41;8.90;99.90
11112;DHT22;5609;49.466;8.468;2022-11-20T01:19:11;8.80;99.90
11112;DHT22;5609;49.466;8.468;2022-11-20T01:21:40;8.90;99.90
11112;DHT22;5609;49.466;8.468;2022-11-20T01:24:11;8.30;99.90
11112;DHT22;5609;49.466;8.468;2022-11-20T01:26:41;8.30;99.90
11112;DHT22;5609;49.466;8.468;2022-11-20T01:29:13;8.10;99.90
11112;DHT22;5609;49.466;8.468;2022-11-20T01:31:40;8.10;99.90
11112;DHT22;5609;49.466;8.468;2022-11-20T01:34:10;8.00;99.90
11112;DHT22;5609;49.466;8.468;2022-11-20T01:36:38;8.20;99.90
11112;DHT22;5609;49.466;8.468;2022-11-20T01:39:10;8.50;99.90
11112;DHT22;5609;49.466;8.468;2022-11-20T01:41:37;8.50;99.90
11112;DHT22;5609;49.466;8.468;2022-11-20T01:44:43;8.50;99.90
11112;DHT22;5609;49.466;8.468;2022-11-20T01:47:15;8.90;99.90
11112;DHT22;5609;49.466;8.468;2022-11-20T01:49:45;9.00;99.90
11112;DHT22;5609;49.466;8.468;2022-11-20T01:52:16;9.10;99.90
11112;DHT22;5609;49.466;8.468;2022-11-20T01:54:47;9.30;99.90
11112;DHT22;5609;49.466;8.468;2022-11-20T01:57:15;9.40;99.90
11112;DHT22;5609;49.466;8.468;2022-11-20T01:59:50;9.60;99.90
11112;DHT22;5609;49.466;8.468;2022-11-20T02:02:20;9.60;99.90
11112;DHT22;5609;49.466;8.468;2022-11-20T02:04:47;9.60;99.90
11112;DHT22;5609;49.466;8.468;2022-11-20T02:07:16;9.60;99.90
11112;DHT22;5609;49.466;8.468;2022-11-20T02:09:43;9.60;99.90
11112;DHT22;5609;49.466;8.468;2022-11-20T02:12:10;9.30;99.90
11112;DHT22;5609;49.466;8.468;2022-11-20T02:14:58;9.50;99.90
11112;DHT22;5609;49.466;8.468;2022-11-20T02:17:24;9.40;99.90
11112;DHT22;5609;49.466;8.468;2022-11-20T02:19:51;9.30;99.90
11112;DHT22;5609;49.466;8.468;2022-11-20T02:22:22;9.30;99.90
11112;DHT22;5609;49.466;8.468;2022-11-20T02:24:54;9.00;99.90
11112;DHT22;5609;49.466;8.468;2022-11-20T02:27:21;9.00;99.90
11112;DHT22;5609;49.466;8.468;2022-11-20T02:29:50;8.70;99.90
11112;DHT22;5609;49.466;8.468;2022-11-20T02:32:18;8.50;99.90
11112;DHT22;5609;49.466;8.468;2022-11-20T02:34:45;8.80;99.90
11112;DHT22;5609;49.466;8.468;2022-11-20T02:37:13;9.10;99.90
11112;DHT22;5609;49.466;8.468;2022-11-20T02:39:40;9.10;99.90
11112;DHT22;5609;49.466;8.468;2022-11-20T02:42:09;9.30;99.90
11112;DHT22;5609;49.466;8.468;2022-11-20T02:44:36;9.40;99.90
11112;DHT22;5609;49.466;8.468;2022-11-20T02:47:03;9.50;99.90
11112;DHT22;5609;49.466;8.468;2022-11-20T02:49:29;9.40;99.90
11112;DHT22;5609;49.466;8.468;2022-11-20T02:51:56;9.50;99.90
11112;DHT22;5609;49.466;8.468;2022-11-20T02:54:23;9.40;99.90
11112;DHT22;5609;49.466;8.468;2022-11-20T02:56:51;9.50;99.90
11112;DHT22;5609;49.466;8.468;2022-11-20T02:59:19;9.40;99.90
11112;DHT22;5609;49.466;8.468;2022-11-20T03:01:46;9.20;99.90
11112;DHT22;5609;49.466;8.468;2022-11-20T03:04:12;8.80;99.90
11112;DHT22;5609;49.466;8.468;2022-11-20T03:06:39;8.90;99.90
11112;DHT22;5609;49.466;8.468;2022-11-20T03:09:06;9.10;99.90
11112;DHT22;5609;49.466;8.468;2022-11-20T03:11:33;9.30;99.90
11112;DHT22;5609;49.466;8.468;2022-11-20T03:14:02;9.40;99.90
11112;DHT22;5609;49.466;8.468;2022-11-20T03:16:31;9.20;99.90
11112;DHT22;5609;49.466;8.468;2022-11-20T03:18:58;9.30;99.90
11112;DHT22;5609;49.466;8.468;2022-11-20T03:21:25;9.40;99.90
11112;DHT22;5609;49.466;8.468;2022-11-20T03:23:53;9.30;99.90
11112;DHT22;5609;49.466;8.468;2022-11-20T03:26:22;9.20;99.90
11112;DHT22;5609;49.466;8.468;2022-11-20T03:28:50;9.20;99.90
11112;DHT22;5609;49.466;8.468;2022-11-20T03:31:19;9.30;99.90
11112;DHT22;5609;49.466;8.468;2022-11-20T03:33:48;9.40;99.90
11112;DHT22;5609;49.466;8.468;2022-11-20T03:36:17;9.60;99.90
11112;DHT22;5609;49.466;8.468;2022-11-20T03:38:44;9.40;99.90
11112;DHT22;5609;49.466;8.468;2022-11-20T03:41:13;9.00;99.90
11112;DHT22;5609;49.466;8.468;2022-11-20T03:43:40;8.80;99.90
11112;DHT22;5609;49.466;8.468;2022-11-20T03:46:07;8.60;99.90
11112;DHT22;5609;49.466;8.468;2022-11-20T03:48:34;8.50;99.90
11112;DHT22;5609;49.466;8.468;2022-11-20T03:51:10;8.20;99.90
11112;DHT22;5609;49.466;8.468;2022-11-20T03:53:37;8.30;99.90
11112;DHT22;5609;49.466;8.468;2022-11-20T03:56:05;8.60;99.90
11112;DHT22;5609;49.466;8.468;2022-11-20T03:58:32;8.80;99.90
11112;DHT22;5609;49.466;8.468;2022-11-20T04:01:04;9.00;99.90
11112;DHT22;5609;49.466;8.468;2022-11-20T04:03:31;9.20;99.90
11112;DHT22;5609;49.466;8.468;2022-11-20T04:06:02;9.40;99.90
11112;DHT22;5609;49.466;8.468;2022-11-20T04:08:30;9.50;99.90
11112;DHT22;5609;49.466;8.468;2022-11-20T04:11:08;9.60;99.90
11112;DHT22;5609;49.466;8.468;2022-11-20T04:13:34;9.60;99.90
11112;DHT22;5609;49.466;8.468;2022-11-20T04:16:01;9.60;99.90
11112;DHT22;5609;49.466;8.468;2022-11-20T04:18:28;8.80;99.90
11112;DHT22;5609;49.466;8.468;2022-11-20T04:20:56;8.30;99.90
11112;DHT22;5609;49.466;8.468;2022-11-20T04:23:23;8.10;99.90
11112;DHT22;5609;49.466;8.468;2022-11-20T04:25:51;7.70;99.90
11112;DHT22;5609;49.466;8.468;2022-11-20T04:28:18;7.80;99.90
11112;DHT22;5609;49.466;8.468;2022-11-20T04:30:46;8.00;99.90
11112;DHT22;5609;49.466;8.468;2022-11-20T04:33:13;8.20;99.90
11112;DHT22;5609;49.466;8.468;2022-11-20T04:35:39;8.50;99.90
11112;DHT22;5609;49.466;8.468;2022-11-20T04:38:06;8.90;99.90
11112;DHT22;5609;49.466;8.468;2022-11-20T04:40:33;9.10;99.90
11112;DHT22;5609;49.466;8.468;2022-11-20T04:43:01;9.30;99.90
11112;DHT22;5609;49.466;8.468;2022-11-20T04:45:28;9.60;99.90
11112;DHT22;5609;49.466;8.468;2022-11-20T04:47:55;9.60;99.90
11112;DHT22;5609;49.466;8.468;2022-11-20T04:50:21;9.50;99.90
11112;DHT22;5609;49.466;8.468;2022-11-20T04:52:48;9.70;99.90
11112;DHT22;5609;49.466;8.468;2022-11-20T04:55:15;9.70;99.90
11112;DHT22;5609;49.466;8.468;2022-11-20T04:57:42;9.80;99.90
11112;DHT22;5609;49.466;8.468;2022-11-20T05:00:11;9.90;99.90
11112;DHT22;5609;49.466;8.468;2022-11-20T05:02:38;9.70;99.90
11112;DHT22;5609;49.466;8.468;2022-11-20T05:05:05;9.60;99.90
11112;DHT22;5609;49.466;8.468;2022-11-20T05:07:32;9.60;99.90
11112;DHT22;5609;49.466;8.468;2022-11-20T05:09:59;9.70;99.90
11112;DHT22;5609;49.466;8.468;2022-11-20T05:12:26;9.70;99.90
11112;DHT22;5609;49.466;8.468;2022-11-20T05:14:54;9.90;99.90
11112;DHT22;5609;49.466;8.468;2022-11-20T05:17:22;9.90;99.90
11112;DHT22;5609;49.466;8.468;2022-11-20T05:19:49;9.90;99.90
11112;DHT22;5609;49.466;8.468;2022-11-20T05:22:15;9.80;99.90
11112;DHT22;5609;49.466;8.468;2022-11-20T05:24:42;9.20;99.90
11112;DHT22;5609;49.466;8.468;2022-11-20T05:27:09;9.20;99.90
11112;DHT22;5609;49.466;8.468;2022-11-20T05:29:36;9.00;99.90
11112;DHT22;5609;49.466;8.468;2022-11-20T05:32:03;9.00;99.90
11112;DHT22;5609;49.466;8.468;2022-11-20T05:34:32;8.90;99.90
11112;DHT22;5609;49.466;8.468;2022-11-20T05:36:59;9.30;99.90
11112;DHT22;5609;49.466;8.468;2022-11-20T05:39:26;9.50;99.90
11112;DHT22;5609;49.466;8.468;2022-11-20T05:41:53;9.60;99.90
11112;DHT22;5609;49.466;8.468;2022-11-20T05:44:33;9.70;99.90
11112;DHT22;5609;49.466;8.468;2022-11-20T05:47:00;9.70;99.90
11112;DHT22;5609;49.466;8.468;2022-11-20T05:49:27;9.80;99.90
11112;DHT22;5609;49.466;8.468;2022-11-20T05:51:55;9.70;99.90
11112;DHT22;5609;49.466;8.468;2022-11-20T05:54:22;9.70;99.90
11112;DHT22;5609;49.466;8.468;2022-11-20T05:56:48;9.80;99.90
11112;DHT22;5609;49.466;8.468;2022-11-20T05:59:15;9.90;99.90
11112;DHT22;5609;49.466;8.468;2022-11-20T06:01:42;9.80;99.90
11112;DHT22;5609;49.466;8.468;2022-11-20T06:04:09;10.00;99.90
11112;DHT22;5609;49.466;8.468;2022-11-20T06:06:35;10.00;99.90
11112;DHT22;5609;49.466;8.468;2022-11-20T06:09:04;10.00;99.90
11112;DHT22;5609;49.466;8.468;2022-11-20T06:11:30;9.90;99.90
11112;DHT22;5609;49.466;8.468;2022-11-20T06:13:57;9.80;99.90
11112;DHT22;5609;49.466;8.468;2022-11-20T06:16:24;9.50;99.90
11112;DHT22;5609;49.466;8.468;2022-11-20T06:18:51;9.40;99.90
11112;DHT22;5609;49.466;8.468;2022-11-20T06:21:19;9.50;99.90
11112;DHT22;5609;49.466;8.468;2022-11-20T06:23:46;9.60;99.90
11112;DHT22;5609;49.466;8.468;2022-11-20T06:26:16;9.60;99.90
11112;DHT22;5609;49.466;8.468;2022-11-20T06:28:44;9.30;99.90
11112;DHT22;5609;49.466;8.468;2022-11-20T06:31:12;9.10;99.90
11112;DHT22;5609;49.466;8.468;2022-11-20T06:33:39;9.20;99.90
11112;DHT22;5609;49.466;8.468;2022-11-20T06:36:07;9.10;99.90
11112;DHT22;5609;49.466;8.468;2022-11-20T06:38:33;9.20;99.90
11112;DHT22;5609;49.466;8.468;2022-11-20T06:41:00;9.40;99.90
11112;DHT22;5609;49.466;8.468;2022-11-20T06:43:29;9.50;99.90
11112;DHT22;5609;49.466;8.468;2022-11-20T06:45:57;9.50;99.90
11112;DHT22;5609;49.466;8.468;2022-11-20T06:48:26;9.40;99.90
11112;DHT22;5609;49.466;8.468;2022-11-20T06:50:54;9.40;99.90
11112;DHT22;5609;49.466;8.468;2022-11-20T06:53:21;9.40;99.90
11112;DHT22;5609;49.466;8.468;2022-11-20T06:55:48;9.50;99.90
11112;DHT22;5609;49.466;8.468;2022-11-20T06:58:16;9.70;99.90
11112;DHT22;5609;49.466;8.468;2022-11-20T07:00:44;9.80;99.90
11112;DHT22;5609;49.466;8.468;2022-11-20T07:03:11;9.90;99.90
11112;DHT22;5609;49.466;8.468;2022-11-20T07:05:39;10.00;99.90
11112;DHT22;5609;49.466;8.468;2022-11-20T07:08:06;10.00;99.90
11112;DHT22;5609;49.466;8.468;2022-11-20T07:10:33;10.00;99.90
11112;DHT22;5609;49.466;8.468;2022-11-20T07:13:02;10.00;99.90
11112;DHT22;5609;49.466;8.468;2022-11-20T07:15:28;10.10;99.90
11112;DHT22;5609;49.466;8.468;2022-11-20T07:17:58;9.90;99.90
11112;DHT22;5609;49.466;8.468;2022-11-20T07:20:25;9.60;99.90
11112;DHT22;5609;49.466;8.468;2022-11-20T07:22:54;9.30;99.90
11112;DHT22;5609;49.466;8.468;2022-11-20T07:25:21;8.90;99.90
11112;DHT22;5609;49.466;8.468;2022-11-20T07:27:48;8.50;99.90
11112;DHT22;5609;49.466;8.468;2022-11-20T07:30:15;8.30;99.90
11112;DHT22;5609;49.466;8.468;2022-11-20T07:32:42;8.00;99.90
11112;DHT22;5609;49.466;8.468;2022-11-20T07:35:14;7.80;99.90
11112;DHT22;5609;49.466;8.468;2022-11-20T07:37:41;7.60;99.90
11112;DHT22;5609;49.466;8.468;2022-11-20T07:40:08;7.40;99.90
11112;DHT22;5609;49.466;8.468;2022-11-20T07:42:35;7.30;99.90
11112;DHT22;5609;49.466;8.468;2022-11-20T07:45:02;7.20;99.90
11112;DHT22;5609;49.466;8.468;2022-11-20T07:47:35;7.10;99.90
11112;DHT22;5609;49.466;8.468;2022-11-20T07:50:02;7.10;99.90
11112;DHT22;5609;49.466;8.468;2022-11-20T07:52:30;7.00;99.90
11112;DHT22;5609;49.466;8.468;2022-11-20T07:54:57;7.00;99.90
11112;DHT22;5609;49.466;8.468;2022-11-20T07:57:23;6.90;99.90
11112;DHT22;5609;49.466;8.468;2022-11-20T07:59:50;6.70;99.90
11112;DHT22;5609;49.466;8.468;2022-11-20T08:02:17;6.70;99.90
11112;DHT22;5609;49.466;8.468;2022-11-20T08:04:44;6.70;99.90
11112;DHT22;5609;49.466;8.468;2022-11-20T08:07:10;6.80;99.90
11112;DHT22;5609;49.466;8.468;2022-11-20T08:09:39;6.80;99.90
11112;DHT22;5609;49.466;8.468;2022-11-20T08:12:06;6.70;99.90
11112;DHT22;5609;49.466;8.468;2022-11-20T08:14:50;6.70;99.90
11112;DHT22;5609;49.466;8.468;2022-11-20T08:17:17;6.80;99.90
11112;DHT22;5609;49.466;8.468;2022-11-20T08:19:44;6.80;99.90
11112;DHT22;5609;49.466;8.468;2022-11-20T08:22:10;6.90;99.90
11112;DHT22;5609;49.466;8.468;2022-11-20T08:24:39;6.90;99.90
11112;DHT22;5609;49.466;8.468;2022-11-20T08:27:05;6.90;99.90
11112;DHT22;5609;49.466;8.468;2022-11-20T08:29:32;6.90;99.90
11112;DHT22;5609;49.466;8.468;2022-11-20T08:31:59;6.70;99.90
11112;DHT22;5609;49.466;8.468;2022-11-20T08:34:26;6.70;99.90
11112;DHT22;5609;49.466;8.468;2022-11-20T08:36:52;6.60;99.90
11112;DHT22;5609;49.466;8.468;2022-11-20T08:39:19;6.60;99.90
11112;DHT22;5609;49.466;8.468;2022-11-20T08:41:47;6.60;99.90
11112;DHT22;5609;49.466;8.468;2022-11-20T08:44:14;6.50;99.90
11112;DHT22;5609;49.466;8.468;2022-11-20T08:46:41;6.50;99.90
11112;DHT22;5609;49.466;8.468;2022-11-20T08:49:11;6.50;99.90
11112;DHT22;5609;49.466;8.468;2022-11-20T08:51:38;6.40;99.90
11112;DHT22;5609;49.466;8.468;2022-11-20T08:54:06;6.30;99.90
11112;DHT22;5609;49.466;8.468;2022-11-20T08:56:33;6.30;99.90
11112;DHT22;5609;49.466;8.468;2022-11-20T08:59:02;6.30;99.90
11112;DHT22;5609;49.466;8.468;2022-11-20T09:01:29;6.30;99.90
11112;DHT22;5609;49.466;8.468;2022-11-20T09:03:55;6.30;99.90
11112;DHT22;5609;49.466;8.468;2022-11-20T09:06:23;6.30;99.90
11112;DHT22;5609;49.466;8.468;2022-11-20T09:08:51;6.30;99.90
11112;DHT22;5609;49.466;8.468;2022-11-20T09:11:18;6.30;99.90
11112;DHT22;5609;49.466;8.468;2022-11-20T09:13:45;6.30;99.90
11112;DHT22;5609;49.466;8.468;2022-11-20T09:16:13;6.30;99.90
11112;DHT22;5609;49.466;8.468;2022-11-20T09:18:40;6.40;99.90
11112;DHT22;5609;49.466;8.468;2022-11-20T09:21:10;6.30;99.90
11112;DHT22;5609;49.466;8.468;2022-11-20T09:23:37;6.40;99.90
11112;DHT22;5609;49.466;8.468;2022-11-20T09:26:06;6.50;99.90
11112;DHT22;5609;49.466;8.468;2022-11-20T09:28:33;6.50;99.90
11112;DHT22;5609;49.466;8.468;2022-11-20T09:31:00;6.60;99.90
11112;DHT22;5609;49.466;8.468;2022-11-20T09:33:28;6.60;99.90
11112;DHT22;5609;49.466;8.468;2022-11-20T09:35:55;6.60;99.90
11112;DHT22;5609;49.466;8.468;2022-11-20T09:38:21;6.70;99.90
11112;DHT22;5609;49.466;8.468;2022-11-20T09:40:54;6.60;99.90
11112;DHT22;5609;49.466;8.468;2022-11-20T09:43:30;6.70;99.90
11112;DHT22;5609;49.466;8.468;2022-11-20T09:46:08;6.70;99.90
11112;DHT22;5609;49.466;8.468;2022-11-20T09:48:46;6.70;99.90
11112;DHT22;5609;49.466;8.468;2022-11-20T09:51:23;6.70;99.90
11112;DHT22;5609;49.466;8.468;2022-11-20T09:54:05;6.70;99.90
11112;DHT22;5609;49.466;8.468;2022-11-20T09:56:34;6.80;99.90
11112;DHT22;5609;49.466;8.468;2022-11-20T09:59:06;7.00;99.90
11112;DHT22;5609;49.466;8.468;2022-11-20T10:01:38;6.90;99.90
11112;DHT22;5609;49.466;8.468;2022-11-20T10:04:12;7.00;99.90
11112;DHT22;5609;49.466;8.468;2022-11-20T10:06:43;7.20;99.90
11112;DHT22;5609;49.466;8.468;2022-11-20T10:09:18;7.20;99.90
11112;DHT22;5609;49.466;8.468;2022-11-20T10:11:54;7.20;99.90
11112;DHT22;5609;49.466;8.468;2022-11-20T10:14:33;7.30;99.90
11112;DHT22;5609;49.466;8.468;2022-11-20T10:17:08;7.30;99.90
11112;DHT22;5609;49.466;8.468;2022-11-20T10:19:54;7.30;99.90
11112;DHT22;5609;49.466;8.468;2022-11-20T10:22:35;7.20;99.90
11112;DHT22;5609;49.466;8.468;2022-11-20T10:25:12;7.10;99.90
11112;DHT22;5609;49.466;8.468;2022-11-20T10:27:52;7.10;99.90
11112;DHT22;5609;49.466;8.468;2022-11-20T10:30:22;7.20;99.90
11112;DHT22;5609;49.466;8.468;2022-11-20T10:32:55;7.10;99.90
11112;DHT22;5609;49.466;8.468;2022-11-20T10:35:28;7.30;99.90
11112;DHT22;5609;49.466;8.468;2022-11-20T10:38:01;7.30;99.90
11112;DHT22;5609;49.466;8.468;2022-11-20T10:40:39;7.40;99.90
11112;DHT22;5609;49.466;8.468;2022-11-20T10:43:11;7.40;99.90
11112;DHT22;5609;49.466;8.468;2022-11-20T10:45:56;7.40;99.90
11112;DHT22;5609;49.466;8.468;2022-11-20T10:48:25;7.40;99.90
11112;DHT22;5609;49.466;8.468;2022-11-20T10:51:07;7.30;99.90
11112;DHT22;5609;49.466;8.468;2022-11-20T10:53:54;7.10;99.90
11112;DHT22;5609;49.466;8.468;2022-11-20T10:56:27;7.10;99.90
11112;DHT22;5609;49.466;8.468;2022-11-20T10:59:19;7.10;99.90
11112;DHT22;5609;49.466;8.468;2022-11-20T11:01:51;7.10;99.90
11112;DHT22;5609;49.466;8.468;2022-11-20T11:04:29;7.20;99.90
11112;DHT22;5609;49.466;8.468;2022-11-20T11:07:07;7.20;99.90
11112;DHT22;5609;49.466;8.468;2022-11-20T11:09:41;7.20;99.90
11112;DHT22;5609;49.466;8.468;2022-11-20T11:12:09;7.30;99.90
11112;DHT22;5609;49.466;8.468;2022-11-20T11:14:45;7.50;99.90
11112;DHT22;5609;49.466;8.468;2022-11-20T11:17:22;7.80;99.90
11112;DHT22;5609;49.466;8.468;2022-11-20T11:20:04;8.00;99.90
11112;DHT22;5609;49.466;8.468;2022-11-20T11:22:39;8.30;99.90
11112;DHT22;5609;49.466;8.468;2022-11-20T11:25:24;8.90;99.90
11112;DHT22;5609;49.466;8.468;2022-11-20T11:27:52;9.30;99.90
11112;DHT22;5609;49.466;8.468;2022-11-20T11:30:21;9.60;99.90
11112;DHT22;5609;49.466;8.468;2022-11-20T11:32:48;9.80;99.90
11112;DHT22;5609;49.466;8.468;2022-11-20T11:35:24;10.10;99.90
11112;DHT22;5609;49.466;8.468;2022-11-20T11:37:54;10.30;99.90
11112;DHT22;5609;49.466;8.468;2022-11-20T11:40:29;10.70;99.90
11112;DHT22;5609;49.466;8.468;2022-11-20T11:42:59;11.00;99.90
11112;DHT22;5609;49.466;8.468;2022-11-20T11:45:28;11.30;99.90
11112;DHT22;5609;49.466;8.468;2022-11-20T11:47:56;11.30;99.90
11112;DHT22;5609;49.466;8.468;2022-11-20T11:50:24;11.20;99.90
11112;DHT22;5609;49.466;8.468;2022-11-20T11:52:59;11.00;99.90
11112;DHT22;5609;49.466;8.468;2022-11-20T11:55:36;10.90;99.90
11112;DHT22;5609;49.466;8.468;2022-11-20T11:58:14;10.90;99.90
11112;DHT22;5609;49.466;8.468;2022-11-20T12:00:49;11.00;99.90
11112;DHT22;5609;49.466;8.468;2022-11-20T12:03:20;11.10;99.90
11112;DHT22;5609;49.466;8.468;2022-11-20T12:05:53;11.20;99.90
11112;DHT22;5609;49.466;8.468;2022-11-20T12:08:25;11.30;99.90
11112;DHT22;5609;49.466;8.468;2022-11-20T12:10:57;11.20;99.90
11112;DHT22;5609;49.466;8.468;2022-11-20T12:13:37;11.10;99.90
11112;DHT22;5609;49.466;8.468;2022-11-20T12:16:11;11.30;99.90
11112;DHT22;5609;49.466;8.468;2022-11-20T12:18:39;11.30;99.90
11112;DHT22;5609;49.466;8.468;2022-11-20T12:21:18;11.40;99.90
11112;DHT22;5609;49.466;8.468;2022-11-20T12:23:59;11.60;99.90
11112;DHT22;5609;49.466;8.468;2022-11-20T12:26:43;11.60;99.90
11112;DHT22;5609;49.466;8.468;2022-11-20T12:29:17;11.50;99.90
11112;DHT22;5609;49.466;8.468;2022-11-20T12:31:56;11.40;99.90
11112;DHT22;5609;49.466;8.468;2022-11-20T12:34:47;11.20;99.90
11112;DHT22;5609;49.466;8.468;2022-11-20T12:37:26;11.10;99.90
11112;DHT22;5609;49.466;8.468;2022-11-20T12:39:58;10.90;99.90
11112;DHT22;5609;49.466;8.468;2022-11-20T12:42:39;10.80;99.90
11112;DHT22;5609;49.466;8.468;2022-11-20T12:45:35;10.70;99.90
11112;DHT22;5609;49.466;8.468;2022-11-20T12:48:26;10.50;99.90
11112;DHT22;5609;49.466;8.468;2022-11-20T12:51:17;10.40;99.90
11112;DHT22;5609;49.466;8.468;2022-11-20T12:53:57;10.20;99.90
11112;DHT22;5609;49.466;8.468;2022-11-20T12:56:37;10.10;99.90
11112;DHT22;5609;49.466;8.468;2022-11-20T12:59:26;10.00;99.90
11112;DHT22;5609;49.466;8.468;2022-11-20T13:02:00;9.90;99.90
11112;DHT22;5609;49.466;8.468;2022-11-20T13:04:43;9.90;99.90
11112;DHT22;5609;49.466;8.468;2022-11-20T13:07:17;9.80;99.90
11112;DHT22;5609;49.466;8.468;2022-11-20T13:09:46;9.70;99.90
11112;DHT22;5609;49.466;8.468;2022-11-20T13:12:19;9.60;99.90
11112;DHT22;5609;49.466;8.468;2022-11-20T13:14:53;9.70;99.90
11112;DHT22;5609;49.466;8.468;2022-11-20T13:17:26;9.70;99.90
11112;DHT22;5609;49.466;8.468;2022-11-20T13:19:56;9.80;99.90
11112;DHT22;5609;49.466;8.468;2022-11-20T13:22:25;9.80;99.90
11112;DHT22;5609;49.466;8.468;2022-11-20T13:24:52;9.90;99.90
11112;DHT22;5609;49.466;8.468;2022-11-20T13:27:21;10.00;99.90
11112;DHT22;5609;49.466;8.468;2022-11-20T13:30:00;10.10;99.90
11112;DHT22;5609;49.466;8.468;2022-11-20T13:32:28;10.20;99.90
11112;DHT22;5609;49.466;8.468;2022-11-20T13:34:59;10.30;99.90
11112;DHT22;5609;49.466;8.468;2022-11-20T13:37:31;10.30;99.90
11112;DHT22;5609;49.466;8.468;2022-11-20T13:40:21;10.40;99.90
11112;DHT22;5609;49.466;8.468;2022-11-20T13:42:56;10.50;99.90
11112;DHT22;5609;49.466;8.468;2022-11-20T13:45:25;10.60;99.90
11112;DHT22;5609;49.466;8.468;2022-11-20T13:47:54;10.80;99.90
11112;DHT22;5609;49.466;8.468;2022-11-20T13:50:37;11.10;99.90
11112;DHT22;5609;49.466;8.468;2022-11-20T13:53:13;11.50;99.90
11112;DHT22;5609;49.466;8.468;2022-11-20T13:55:49;12.00;99.90
11112;DHT22;5609;49.466;8.468;2022-11-20T13:58:30;12.50;99.90
11112;DHT22;5609;49.466;8.468;2022-11-20T14:01:09;12.70;99.90
11112;DHT22;5609;49.466;8.468;2022-11-20T14:03:37;12.90;99.90
11112;DHT22;5609;49.466;8.468;2022-11-20T14:06:11;13.00;99.90
11112;DHT22;5609;49.466;8.468;2022-11-20T14:08:43;13.20;99.90
11112;DHT22;5609;49.466;8.468;2022-11-20T14:11:16;13.10;99.90
11112;DHT22;5609;49.466;8.468;2022-11-20T14:13:57;12.90;99.90
11112;DHT22;5609;49.466;8.468;2022-11-20T14:16:25;12.80;99.90
11112;DHT22;5609;49.466;8.468;2022-11-20T14:18:53;12.40;99.90
11112;DHT22;5609;49.466;8.468;2022-11-20T14:21:28;12.00;99.90
11112;DHT22;5609;49.466;8.468;2022-11-20T14:24:03;11.60;99.90
11112;DHT22;5609;49.466;8.468;2022-11-20T14:26:30;11.20;99.90
11112;DHT22;5609;49.466;8.468;2022-11-20T14:28:59;11.00;99.90
11112;DHT22;5609;49.466;8.468;2022-11-20T14:31:27;10.70;99.90
11112;DHT22;5609;49.466;8.468;2022-11-20T14:33:55;10.40;99.90
11112;DHT22;5609;49.466;8.468;2022-11-20T14:36:24;10.30;99.90
11112;DHT22;5609;49.466;8.468;2022-11-20T14:38:52;10.10;99.90
11112;DHT22;5609;49.466;8.468;2022-11-20T14:41:21;10.00;99.90
11112;DHT22;5609;49.466;8.468;2022-11-20T14:43:54;9.80;99.90
11112;DHT22;5609;49.466;8.468;2022-11-20T14:46:24;9.60;99.90
11112;DHT22;5609;49.466;8.468;2022-11-20T14:48:53;9.50;99.90
11112;DHT22;5609;49.466;8.468;2022-11-20T14:51:27;9.50;99.90
11112;DHT22;5609;49.466;8.468;2022-11-20T14:53:54;9.40;99.90
11112;DHT22;5609;49.466;8.468;2022-11-20T14:56:22;9.30;99.90
11112;DHT22;5609;49.466;8.468;2022-11-20T14:58:55;9.10;99.90
11112;DHT22;5609;49.466;8.468;2022-11-20T15:01:27;9.10;99.90
11112;DHT22;5609;49.466;8.468;2022-11-20T15:04:00;8.90;99.90
11112;DHT22;5609;49.466;8.468;2022-11-20T15:06:28;8.90;99.90
11112;DHT22;5609;49.466;8.468;2022-11-20T15:08:56;8.80;99.90
11112;DHT22;5609;49.466;8.468;2022-11-20T15:11:28;8.70;99.90
11112;DHT22;5609;49.466;8.468;2022-11-20T15:13:55;8.70;99.90
11112;DHT22;5609;49.466;8.468;2022-11-20T15:16:23;8.70;99.90
11112;DHT22;5609;49.466;8.468;2022-11-20T15:18:52;8.60;99.90
11112;DHT22;5609;49.466;8.468;2022-11-20T15:21:20;8.50;99.90
11112;DHT22;5609;49.466;8.468;2022-11-20T15:23:47;8.50;99.90
11112;DHT22;5609;49.466;8.468;2022-11-20T15:26:16;8.40;99.90
11112;DHT22;5609;49.466;8.468;2022-11-20T15:28:45;8.40;99.90
11112;DHT22;5609;49.466;8.468;2022-11-20T15:31:14;8.40;99.90
11112;DHT22;5609;49.466;8.468;2022-11-20T15:33:41;8.30;99.90
11112;DHT22;5609;49.466;8.468;2022-11-20T15:36:10;8.30;99.90
11112;DHT22;5609;49.466;8.468;2022-11-20T15:38:37;8.30;99.90
11112;DHT22;5609;49.466;8.468;2022-11-20T15:41:03;8.20;99.90
11112;DHT22;5609;49.466;8.468;2022-11-20T15:43:30;8.20;99.90
11112;DHT22;5609;49.466;8.468;2022-11-20T15:45:59;8.20;99.90
11112;DHT22;5609;49.466;8.468;2022-11-20T15:48:28;8.10;99.90
11112;DHT22;5609;49.466;8.468;2022-11-20T15:50:59;8.10;99.90
11112;DHT22;5609;49.466;8.468;2022-11-20T15:53:29;8.10;99.90
11112;DHT22;5609;49.466;8.468;2022-11-20T15:55:55;8.10;99.90
11112;DHT22;5609;49.466;8.468;2022-11-20T15:58:22;8.00;99.90
11112;DHT22;5609;49.466;8.468;2022-11-20T16:00:50;8.00;99.90
11112;DHT22;5609;49.466;8.468;2022-11-20T16:03:18;8.00;99.90
11112;DHT22;5609;49.466;8.468;2022-11-20T16:05:44;7.90;99.90
11112;DHT22;5609;49.466;8.468;2022-11-20T16:08:12;7.90;99.90
11112;DHT22;5609;49.466;8.468;2022-11-20T16:10:40;7.90;99.90
11112;DHT22;5609;49.466;8.468;2022-11-20T16:13:12;7.90;99.90
11112;DHT22;5609;49.466;8.468;2022-11-20T16:15:58;7.80;99.90
11112;DHT22;5609;49.466;8.468;2022-11-20T16:18:25;7.90;99.90